Time;durP1;ratioP1;P1;durP2;ratioP2;P2;SDS_P1;SDS_P2;PMS_P1;PMS_P2;Temp;Humidity;BMP_temperature;BMP_pressure;BME280_temperature;BME280_humidity;BME280_pressure;Samples;Min_cycle;Max_cycle;Signal;HPM_P1;HPM_P2
2021/01/26 00:03:03;;;;;;;6.85;6.15;;;;;;;5.53;68.95;98761.30;2535202;77;25868;-80
2021/01/26 00:06:46;;;;;;;7.10;6.37;;;;;;;5.53;68.62;98765.18;2487029;77;25807;-79
2021/01/26 00:10:23;;;;;;;7.53;6.25;;;;;;;5.52;68.49;98770.34;2437859;80;25805;-79
2021/01/26 00:13:44;;;;;;;7.05;6.35;;;;;;;5.49;68.29;98770.28;2471218;79;25838;-79
2021/01/26 00:17:37;;;;;;;6.40;5.90;;;;;;;5.45;68.24;98777.97;2454499;79;25823;-80
2021/01/26 00:21:00;;;;;;;7.42;6.47;;;;;;;5.43;68.18;98775.80;2477385;79;25725;-79
2021/01/26 00:24:53;;;;;;;7.67;6.45;;;;;;;5.42;68.13;98786.95;2457726;78;26153;-79
2021/01/26 00:28:16;;;;;;;6.45;5.83;;;;;;;5.41;68.04;98787.81;2503538;77;25755;-81
2021/01/26 00:31:38;;;;;;;7.62;6.90;;;;;;;5.40;67.96;98792.94;2442201;80;26123;-80
2021/01/26 00:34:59;;;;;;;7.62;6.92;;;;;;;5.39;67.90;98793.36;2467898;79;25793;-78
2021/01/26 00:39:14;;;;;;;;;;;;;;;;;;;;;
2021/01/26 00:51:42;;;;;;;9.28;8.03;;;;;;;5.36;67.68;98789.42;2504560;77;25746;-79
2021/01/26 00:55:25;;;;;;;9.30;8.15;;;;;;;5.36;67.62;98785.55;2486261;77;25767;-78
2021/01/26 00:58:53;;;;;;;10.25;9.18;;;;;;;5.37;67.57;98794.20;2506801;77;25686;-79
2021/01/26 01:02:23;;;;;;;11.70;8.20;;;;;;;5.37;67.49;98783.86;2432742;80;25719;-78
2021/01/26 01:06:09;;;;;;;12.95;10.00;;;;;;;5.35;67.43;98781.66;2506704;77;25639;-78
2021/01/26 01:33:50;;;;;;;14.58;10.75;;;;;;;5.30;67.08;98779.00;2456172;79;25806;-78
2021/01/26 01:37:56;;;;;;;12.78;10.75;;;;;;;5.31;67.05;98788.48;2388381;80;25767;-79
2021/01/26 01:41:35;;;;;;;14.10;11.43;;;;;;;5.31;67.00;98782.45;2404857;80;25729;-78
2021/01/26 01:45:06;;;;;;;16.60;12.28;;;;;;;5.31;66.96;98782.45;2419833;80;25549;-79
2021/01/26 01:48:34;;;;;;;12.70;10.95;;;;;;;5.31;66.93;98779.44;2426966;79;25705;-78
2021/01/26 01:52:31;;;;;;;12.53;11.15;;;;;;;5.31;66.89;98782.45;2432528;80;25833;-78
2021/01/26 01:56:32;;;;;;;16.50;12.18;;;;;;;5.31;66.84;98778.58;2425166;80;26055;-78
2021/01/26 02:00:11;;;;;;;15.37;12.47;;;;;;;5.36;66.70;98777.80;2557762;77;25586;-79
2021/01/26 02:13:40;;;;;;;16.62;12.80;;;;;;;5.28;66.60;98783.26;2361750;82;25698;-79
2021/01/26 02:18:30;;;;;;;19.62;13.30;;;;;;;5.28;66.50;98787.13;2239080;87;25819;-78
2021/01/26 02:33:39;;;;;;;15.53;13.15;;;;;;;5.29;66.44;98799.63;2053747;93;26163;-78
2021/01/26 02:55:13;;;;;;;16.82;13.72;;;;;;;5.27;66.25;98806.50;2339758;79;25649;-79
2021/01/26 02:59:19;;;;;;;20.88;15.08;;;;;;;5.27;66.22;98808.66;2388493;81;25644;-79
2021/01/26 03:03:38;;;;;;;16.07;13.58;;;;;;;5.29;66.20;98806.09;2418314;81;25667;-78
2021/01/26 03:07:41;;;;;;;19.35;13.55;;;;;;;5.29;66.17;98816.42;2412908;80;25874;-78
2021/01/26 03:11:34;;;;;;;16.70;13.58;;;;;;;5.29;66.14;98809.53;2382890;79;25655;-79
2021/01/26 03:15:03;;;;;;;17.95;13.60;;;;;;;5.29;66.11;98815.12;2362160;81;26297;-79
2021/01/26 03:18:53;;;;;;;20.37;14.73;;;;;;;5.29;66.08;98812.12;2356178;80;26206;-78
2021/01/26 03:22:27;;;;;;;21.10;14.28;;;;;;;5.30;66.01;98817.76;2390551;80;25855;-78
2021/01/26 03:26:39;;;;;;;20.70;14.20;;;;;;;5.30;65.98;98818.16;2406442;80;25381;-78
2021/01/26 03:34:21;;;;;;;18.92;13.55;;;;;;;5.29;65.91;98823.74;2260401;85;25897;-77
2021/01/26 03:38:04;;;;;;;19.40;13.47;;;;;;;5.34;65.87;98823.86;2575675;76;25583;-79
2021/01/26 03:41:27;;;;;;;19.40;13.78;;;;;;;5.30;65.86;98829.78;2560332;77;25615;-79
2021/01/26 03:44:52;;;;;;;19.70;14.40;;;;;;;5.30;65.85;98824.61;2545270;77;25696;-78
2021/01/26 03:49:02;;;;;;;16.73;13.72;;;;;;;5.29;65.81;98831.92;2550239;77;25556;-78
2021/01/26 03:53:04;;;;;;;18.55;14.05;;;;;;;5.29;65.74;98825.46;2545299;77;25687;-78
2021/01/26 03:57:41;;;;;;;17.82;13.28;;;;;;;5.28;65.74;98836.22;2536381;77;26047;-78
2021/01/26 04:01:25;;;;;;;16.07;13.28;;;;;;;5.29;65.69;98839.67;2463194;79;25977;-78
2021/01/26 04:05:04;;;;;;;16.50;13.62;;;;;;;5.28;65.70;98841.39;2464085;79;26000;-77
2021/01/26 04:08:35;;;;;;;15.13;13.45;;;;;;;5.28;65.65;98845.27;2456764;80;25671;-78
2021/01/26 04:12:11;;;;;;;18.87;13.48;;;;;;;5.28;65.64;98841.39;2463165;78;25812;-78
2021/01/26 04:16:07;;;;;;;20.40;16.70;;;;;;;5.33;65.54;98838.48;2530541;75;28563;-79
2021/01/26 04:19:34;;;;;;;19.45;13.60;;;;;;;5.42;65.53;98843.81;2559746;76;25736;-80
2021/01/26 04:22:59;;;;;;;16.45;14.20;;;;;;;5.43;65.35;98848.55;2524604;76;25693;-78
2021/01/26 04:26:27;;;;;;;18.42;13.35;;;;;;;5.41;65.32;98848.97;2526174;77;26013;-79
2021/01/26 04:29:51;;;;;;;17.42;13.72;;;;;;;5.38;65.23;98844.60;2519720;77;25652;-78
2021/01/26 04:33:35;;;;;;;14.95;12.47;;;;;;;5.35;65.19;98842.37;2521095;75;25373;-79
2021/01/26 04:47:04;;;;;;;16.55;12.25;;;;;;;5.29;65.11;98853.88;2508609;77;25768;-78
2021/01/26 04:51:03;;;;;;;15.18;12.95;;;;;;;5.27;65.13;98863.33;2540568;77;25945;-79
2021/01/26 04:55:07;;;;;;;14.73;12.30;;;;;;;5.31;65.07;98850.92;2605056;76;25360;-79
2021/01/26 04:58:56;;;;;;;14.73;11.93;;;;;;;5.25;65.09;98848.21;2563372;77;25826;-79
2021/01/26 05:12:26;;;;;;;17.15;12.47;;;;;;;5.20;65.00;98846.84;2214532;87;25807;-79
2021/01/26 05:32:24;;;;;;;13.70;11.48;;;;;;;5.14;65.02;98862.20;2338992;82;26092;-78
2021/01/26 05:36:20;;;;;;;14.85;11.28;;;;;;;5.13;64.98;98865.21;2338065;83;26216;-79
2021/01/26 06:05:51;;;;;;;14.75;11.38;;;;;;;5.12;64.92;98889.27;2299428;83;26149;-78
2021/01/26 06:32:12;;;;;;;12.68;11.05;;;;;;;5.09;64.74;98914.17;2470645;75;26155;-78
2021/01/26 06:50:36;;;;;;;11.22;10.13;;;;;;;5.06;64.64;98922.75;2251143;84;26265;-78
2021/01/26 06:59:06;;;;;;;11.28;10.00;;;;;;;5.09;64.57;98940.00;2255785;84;25771;-78
2021/01/26 07:02:55;;;;;;;10.98;9.88;;;;;;;5.10;64.55;98939.19;2265187;84;25617;-78
2021/01/26 07:11:33;;;;;;;12.03;10.80;;;;;;;5.12;64.43;98937.48;2255379;84;25849;-78
2021/01/26 07:15:31;;;;;;;12.15;10.80;;;;;;;5.11;64.40;98939.20;2260729;84;25838;-78
2021/01/26 07:19:21;;;;;;;12.45;9.63;;;;;;;5.12;64.40;98938.35;2272286;84;25399;-79
2021/01/26 07:23:54;;;;;;;11.85;10.23;;;;;;;5.15;64.33;98938.84;2261122;84;25620;-79
2021/01/26 07:28:31;;;;;;;11.20;9.83;;;;;;;5.16;64.27;98947.05;2252279;83;26155;-78
2021/01/26 07:51:38;;;;;;;14.67;9.47;;;;;;;5.27;63.94;98957.64;2450318;77;25546;-79
2021/01/26 08:07:12;;;;;;;10.13;9.00;;;;;;;5.29;63.73;98954.64;2433792;77;25766;-81
2021/01/26 08:51:34;;;;;;;12.00;9.83;;;;;;;5.65;63.10;98974.81;2358675;81;26413;-86
2021/01/26 09:00:31;;;;;;;16.00;10.90;;;;;;;5.87;62.93;98975.23;2352142;82;26181;-84
2021/01/26 09:05:14;;;;;;;;;;;;;;;;;;;;;
2021/01/26 09:08:47;;;;;;;16.40;10.35;;;;;;;6.13;62.60;98972.76;2300180;82;25727;-84
2021/01/26 09:16:33;;;;;;;20.48;11.00;;;;;;;6.33;62.16;98982.61;2302407;84;25923;-88
2021/01/26 09:20:34;;;;;;;11.22;9.75;;;;;;;6.45;61.99;98975.08;2301189;84;25921;-88
2021/01/26 09:24:23;;;;;;;14.05;11.03;;;;;;;6.63;61.94;98979.26;2312333;84;26330;-86
2021/01/26 09:28:36;;;;;;;14.78;10.55;;;;;;;6.75;61.68;98984.18;2310231;84;25954;-81
2021/01/26 09:50:33;;;;;;;12.47;10.15;;;;;;;7.05;61.08;99007.11;2228212;85;26250;-82
2021/01/26 10:49:30;;;;;;;12.95;9.65;;;;;;;7.74;61.93;99040.11;2277941;85;26211;-87
2021/01/26 11:02:39;;;;;;;14.23;10.25;;;;;;;7.53;61.88;99041.13;2297537;83;26153;-86
2021/01/26 11:06:30;;;;;;;16.82;10.30;;;;;;;7.45;61.83;99048.77;2295343;83;27056;-81
2021/01/26 11:14:37;;;;;;;29.35;9.45;;;;;;;7.32;61.75;99037.77;2367243;81;25834;-82
2021/01/26 11:18:25;;;;;;;10.15;9.05;;;;;;;7.27;63.67;99038.14;2406042;79;25974;-80
2021/01/26 11:26:46;;;;;;;13.75;9.58;;;;;;;7.49;63.51;99040.21;2403726;79;25918;-82
2021/01/26 11:30:59;;;;;;;11.63;9.58;;;;;;;7.48;63.45;99043.63;2419580;80;26006;-81
2021/01/26 11:43:47;;;;;;;16.10;10.93;;;;;;;7.41;63.04;99038.34;2323877;82;26427;-81
2021/01/26 11:58:48;;;;;;;17.07;11.30;;;;;;;7.37;62.62;99031.38;2522719;76;25584;-86
2021/01/26 12:02:10;;;;;;;13.50;10.88;;;;;;;7.30;62.58;99025.22;2480239;78;25618;-82
2021/01/26 12:05:42;;;;;;;12.25;10.93;;;;;;;7.32;62.55;99028.69;2504282;78;25675;-81
2021/01/26 12:09:05;;;;;;;12.47;10.50;;;;;;;7.32;62.41;99032.58;2496186;78;25864;-82
2021/01/26 12:12:27;;;;;;;13.53;11.12;;;;;;;7.28;62.35;99027.78;2470685;78;25775;-82
2021/01/26 12:15:55;;;;;;;13.40;11.33;;;;;;;7.26;62.25;99029.92;2471358;79;25654;-87
2021/01/26 12:19:18;;;;;;;13.98;11.08;;;;;;;7.21;62.23;99030.27;2468599;79;25616;-81
2021/01/26 12:22:42;;;;;;;12.82;11.48;;;;;;;7.16;62.13;99032.80;2497082;78;25672;-82
2021/01/26 12:26:26;;;;;;;12.23;10.58;;;;;;;7.12;62.16;99031.01;2485775;78;25795;-82
2021/01/26 12:30:13;;;;;;;12.43;10.95;;;;;;;7.07;62.15;99032.21;2450553;78;25704;-82
2021/01/26 12:34:03;;;;;;;12.45;11.03;;;;;;;7.02;62.18;99028.69;2430219;78;25962;-82
2021/01/26 12:38:10;;;;;;;13.60;11.40;;;;;;;6.97;62.14;99027.73;2424187;77;25940;-83
2021/01/26 12:41:40;;;;;;;13.58;10.68;;;;;;;6.95;62.13;99036.32;2428718;78;26128;-83
2021/01/26 12:45:12;;;;;;;14.63;11.95;;;;;;;6.91;62.05;99034.53;2456512;79;27255;-82
2021/01/26 12:48:33;;;;;;;13.53;11.33;;;;;;;6.88;62.10;99042.25;2441248;79;25748;-81
2021/01/26 12:51:56;;;;;;;12.95;11.57;;;;;;;6.84;62.02;99047.38;2450377;79;25934;-81
2021/01/26 12:55:18;;;;;;;16.05;11.50;;;;;;;6.80;62.05;99047.30;2448531;78;25839;-81
2021/01/26 12:58:45;;;;;;;15.85;11.80;;;;;;;6.77;62.04;99048.55;2454499;79;26288;-81
2021/01/26 13:02:10;;;;;;;18.98;12.95;;;;;;;6.74;62.02;99045.47;2446035;78;25689;-82
